CXK69 KDEN-PHOG
Flight info
| Callsign | CXK69 |
|---|---|
| Flight time | N/A |
| Altitude | 38000 |
| Route | COORZ7 VOAXA Q134 JULIK JSICA KO51I TIPRE KO45C BEBOP R464 BITTA LNDHY1 |
| Aircraft | A319/M-SDE3FGHIRWY/LB1 |
Departure
| Time | N/A |
|---|---|
| Airport | Denver International Airport (KDEN) |
Arrival
| Time | 2026-05-04 01:52 |
|---|---|
| Airport | Kahului International Airport (PHOG) |
| Time | Latitude | Longitude | Altitude | Speed | Heading |
|---|---|---|---|---|---|
| 2026-05-03 20:15 | 38.86926 | -114.85444 | 37891 ft | 415 kts | 258° |
| 2026-05-03 20:15 | 38.85960 | -114.92737 | 37891 ft | 415 kts | 258° |
| 2026-05-03 20:16 | 38.84986 | -115.00034 | 37894 ft | 415 kts | 258° |
| 2026-05-03 20:16 | 38.84004 | -115.07332 | 37893 ft | 415 kts | 258° |
| 2026-05-03 20:17 | 38.83024 | -115.14629 | 37889 ft | 415 kts | 258° |
| 2026-05-03 20:17 | 38.82037 | -115.21929 | 37888 ft | 415 kts | 258° |
| 2026-05-03 20:18 | 38.81042 | -115.29226 | 37883 ft | 416 kts | 258° |
| 2026-05-03 20:18 | 38.80046 | -115.36521 | 37891 ft | 416 kts | 257° |
| 2026-05-03 20:19 | 38.79044 | -115.43822 | 37882 ft | 416 kts | 257° |
| 2026-05-03 20:19 | 38.78037 | -115.51119 | 37878 ft | 416 kts | 257° |
| 2026-05-03 20:20 | 38.77026 | -115.58422 | 37878 ft | 416 kts | 257° |
| 2026-05-03 20:20 | 38.76019 | -115.65673 | 37893 ft | 416 kts | 257° |
| 2026-05-03 20:21 | 38.74995 | -115.72970 | 37880 ft | 416 kts | 257° |
| 2026-05-03 20:21 | 38.73964 | -115.80280 | 37877 ft | 417 kts | 257° |
| 2026-05-03 20:22 | 38.72930 | -115.87596 | 37881 ft | 418 kts | 257° |
| 2026-05-03 20:22 | 38.71897 | -115.94913 | 37886 ft | 418 kts | 257° |
| 2026-05-03 20:23 | 38.70857 | -116.02228 | 37893 ft | 418 kts | 257° |
| 2026-05-03 20:23 | 38.69805 | -116.09544 | 37892 ft | 418 kts | 257° |
| 2026-05-03 20:24 | 38.68752 | -116.16869 | 37900 ft | 418 kts | 257° |
| 2026-05-03 20:24 | 38.67691 | -116.24139 | 37899 ft | 418 kts | 257° |
| 2026-05-03 20:25 | 38.66624 | -116.31468 | 37904 ft | 419 kts | 257° |
| 2026-05-03 20:25 | 38.65562 | -116.38795 | 37905 ft | 419 kts | 257° |
| 2026-05-03 20:26 | 38.64494 | -116.46118 | 37911 ft | 419 kts | 257° |
| 2026-05-03 20:26 | 38.63416 | -116.53436 | 37920 ft | 419 kts | 257° |
| 2026-05-03 20:27 | 38.62333 | -116.60770 | 37900 ft | 420 kts | 257° |
| 2026-05-03 20:27 | 38.61239 | -116.68118 | 37900 ft | 421 kts | 257° |
| 2026-05-03 20:28 | 38.60138 | -116.75477 | 37904 ft | 422 kts | 257° |
| 2026-05-03 20:28 | 38.59038 | -116.82845 | 37906 ft | 422 kts | 257° |
| 2026-05-03 20:29 | 38.57928 | -116.90216 | 37913 ft | 423 kts | 257° |
| 2026-05-03 20:29 | 38.56809 | -116.97598 | 37911 ft | 423 kts | 257° |
| 2026-05-03 20:30 | 38.55686 | -117.04984 | 37904 ft | 424 kts | 257° |
| 2026-05-03 20:30 | 38.54562 | -117.12375 | 37904 ft | 424 kts | 257° |
| 2026-05-03 20:31 | 38.53431 | -117.19759 | 37915 ft | 424 kts | 256° |
| 2026-05-03 20:31 | 38.52293 | -117.27144 | 37907 ft | 424 kts | 257° |
| 2026-05-03 20:32 | 38.51891 | -117.34687 | 37903 ft | 427 kts | 265° |
| 2026-05-03 20:32 | 38.51699 | -117.42267 | 37895 ft | 427 kts | 265° |
| 2026-05-03 20:33 | 38.51495 | -117.49795 | 37897 ft | 427 kts | 265° |
| 2026-05-03 20:33 | 38.51283 | -117.57369 | 37898 ft | 426 kts | 265° |
| 2026-05-03 20:34 | 38.51065 | -117.64935 | 37876 ft | 426 kts | 265° |
| 2026-05-03 20:34 | 38.50846 | -117.72490 | 37873 ft | 426 kts | 265° |
| 2026-05-03 20:35 | 38.50618 | -117.80044 | 37875 ft | 426 kts | 265° |
| 2026-05-03 20:35 | 38.50391 | -117.87601 | 37862 ft | 426 kts | 264° |
| 2026-05-03 20:36 | 38.50154 | -117.95161 | 37851 ft | 427 kts | 264° |
| 2026-05-03 20:36 | 38.49855 | -118.02726 | 37849 ft | 426 kts | 263° |
| 2026-05-03 20:37 | 38.49254 | -118.10250 | 37841 ft | 426 kts | 261° |
| 2026-05-03 20:37 | 38.48532 | -118.17758 | 37836 ft | 427 kts | 261° |
| 2026-05-03 20:38 | 38.47839 | -118.25287 | 37845 ft | 427 kts | 261° |
| 2026-05-03 20:38 | 38.47198 | -118.32781 | 37858 ft | 428 kts | 261° |
| 2026-05-03 20:39 | 38.46554 | -118.40337 | 37896 ft | 428 kts | 261° |
| 2026-05-03 20:39 | 38.45897 | -118.47892 | 37914 ft | 429 kts | 261° |
| 2026-05-03 20:40 | 38.45339 | -118.54220 | 37932 ft | 429 kts | 261° |
| 2026-05-03 20:40 | 38.44560 | -118.63007 | 37940 ft | 429 kts | 261° |
| 2026-05-03 20:41 | 38.43886 | -118.70564 | 37939 ft | 429 kts | 261° |
| 2026-05-03 20:41 | 38.43318 | -118.76888 | 37918 ft | 429 kts | 261° |
| 2026-05-03 20:42 | 38.42630 | -118.84436 | 37892 ft | 428 kts | 261° |
| 2026-05-03 20:42 | 38.41942 | -118.91979 | 37870 ft | 428 kts | 261° |
| 2026-05-03 20:43 | 38.41258 | -118.99467 | 37841 ft | 428 kts | 261° |
| 2026-05-03 20:43 | 38.40555 | -119.07021 | 37807 ft | 429 kts | 261° |
| 2026-05-03 20:44 | 38.39851 | -119.14590 | 37813 ft | 431 kts | 261° |
| 2026-05-03 20:44 | 38.39141 | -119.22177 | 37813 ft | 431 kts | 261° |
| 2026-05-03 20:45 | 38.38414 | -119.29772 | 37840 ft | 432 kts | 261° |
| 2026-05-03 20:45 | 38.37686 | -119.37370 | 37860 ft | 432 kts | 261° |
| 2026-05-03 20:46 | 38.36952 | -119.44977 | 37864 ft | 432 kts | 261° |
| 2026-05-03 20:46 | 38.36220 | -119.52576 | 37875 ft | 432 kts | 261° |
| 2026-05-03 20:47 | 38.35484 | -119.60183 | 37885 ft | 433 kts | 261° |
| 2026-05-03 20:47 | 38.34740 | -119.67824 | 37885 ft | 435 kts | 261° |
| 2026-05-03 20:48 | 38.33979 | -119.75477 | 37910 ft | 436 kts | 261° |
| 2026-05-03 20:48 | 38.33217 | -119.83152 | 37951 ft | 437 kts | 261° |
| 2026-05-03 20:49 | 38.32450 | -119.90834 | 37944 ft | 438 kts | 261° |
| 2026-05-03 20:49 | 38.31679 | -119.98525 | 37940 ft | 438 kts | 261° |
| 2026-05-03 20:50 | 38.30901 | -120.06173 | 37939 ft | 438 kts | 260° |
| 2026-05-03 20:50 | 38.30105 | -120.13865 | 37947 ft | 439 kts | 260° |
| 2026-05-03 20:51 | 38.29317 | -120.21572 | 37931 ft | 440 kts | 260° |
| 2026-05-03 20:51 | 38.28527 | -120.29292 | 37932 ft | 441 kts | 260° |
| 2026-05-03 20:52 | 38.27724 | -120.37034 | 37952 ft | 441 kts | 260° |
| 2026-05-03 20:52 | 38.26916 | -120.44773 | 37968 ft | 441 kts | 260° |
| 2026-05-03 20:53 | 38.26101 | -120.52513 | 37975 ft | 441 kts | 260° |
| 2026-05-03 20:53 | 38.25274 | -120.60239 | 37980 ft | 441 kts | 260° |
| 2026-05-03 20:54 | 38.24450 | -120.67971 | 37981 ft | 441 kts | 260° |
| 2026-05-03 20:54 | 38.23209 | -120.79566 | 37987 ft | 441 kts | 260° |
| 2026-05-03 20:55 | 38.22364 | -120.87303 | 37986 ft | 441 kts | 260° |
| 2026-05-03 20:55 | 38.21517 | -120.95035 | 37959 ft | 441 kts | 260° |
| 2026-05-03 20:56 | 38.20661 | -121.02767 | 37965 ft | 441 kts | 257° |
| 2026-05-03 20:56 | 38.19107 | -121.10229 | 37961 ft | 440 kts | 252° |
| 2026-05-03 20:57 | 38.17423 | -121.17705 | 37956 ft | 440 kts | 252° |
| 2026-05-03 20:57 | 38.15737 | -121.25181 | 37962 ft | 440 kts | 252° |
| 2026-05-03 20:58 | 38.14044 | -121.32652 | 37969 ft | 440 kts | 252° |
| 2026-05-03 20:58 | 38.12347 | -121.40115 | 37972 ft | 440 kts | 252° |
| 2026-05-03 20:59 | 38.10657 | -121.47584 | 37967 ft | 440 kts | 252° |
| 2026-05-03 20:59 | 38.08965 | -121.55045 | 37975 ft | 440 kts | 252° |
| 2026-05-03 21:00 | 38.07535 | -121.61287 | 37964 ft | 440 kts | 252° |
| 2026-05-03 21:00 | 38.05543 | -121.69938 | 37971 ft | 440 kts | 252° |
| 2026-05-03 21:01 | 38.03819 | -121.77400 | 37959 ft | 441 kts | 252° |
| 2026-05-03 21:01 | 38.02093 | -121.84874 | 37960 ft | 442 kts | 252° |
| 2026-05-03 21:02 | 38.00364 | -121.92357 | 37984 ft | 442 kts | 252° |
| 2026-05-03 21:02 | 37.98621 | -121.99844 | 37988 ft | 443 kts | 252° |
| 2026-05-03 21:03 | 37.96875 | -122.07328 | 37992 ft | 443 kts | 252° |
| 2026-05-03 21:03 | 37.95122 | -122.14814 | 37997 ft | 443 kts | 252° |
| 2026-05-03 21:04 | 37.93374 | -122.22296 | 38012 ft | 443 kts | 252° |
| 2026-05-03 21:04 | 37.91631 | -122.29722 | 38023 ft | 443 kts | 252° |
| 2026-05-03 21:05 | 37.89858 | -122.37190 | 38022 ft | 442 kts | 252° |
| 2026-05-03 21:05 | 37.88087 | -122.44645 | 38024 ft | 443 kts | 252° |
| 2026-05-03 21:06 | 37.86314 | -122.52104 | 38014 ft | 443 kts | 252° |
| 2026-05-03 21:06 | 37.84537 | -122.59561 | 38015 ft | 442 kts | 252° |
| 2026-05-03 21:07 | 37.82755 | -122.67010 | 38026 ft | 442 kts | 252° |
| 2026-05-03 21:07 | 37.80968 | -122.74457 | 38020 ft | 442 kts | 252° |
| 2026-05-03 21:08 | 37.79173 | -122.81891 | 38018 ft | 442 kts | 252° |
| 2026-05-03 21:08 | 37.77382 | -122.89328 | 38022 ft | 442 kts | 252° |
| 2026-05-03 21:09 | 37.75586 | -122.96759 | 38021 ft | 442 kts | 252° |
| 2026-05-03 21:09 | 37.73783 | -123.04179 | 38021 ft | 442 kts | 252° |
| 2026-05-03 21:10 | 37.71973 | -123.11597 | 38016 ft | 442 kts | 252° |
| 2026-05-03 21:10 | 37.70156 | -123.19004 | 38022 ft | 442 kts | 252° |
| 2026-05-03 21:11 | 37.68343 | -123.26410 | 38022 ft | 442 kts | 252° |
| 2026-05-03 21:11 | 37.66526 | -123.33814 | 38017 ft | 441 kts | 252° |
| 2026-05-03 21:12 | 37.64713 | -123.41161 | 38018 ft | 441 kts | 252° |
| 2026-05-03 21:12 | 37.62879 | -123.48550 | 38020 ft | 441 kts | 252° |
| 2026-05-03 21:13 | 37.61046 | -123.55939 | 38018 ft | 441 kts | 252° |
| 2026-05-03 21:13 | 37.59214 | -123.63326 | 38018 ft | 441 kts | 252° |
| 2026-05-03 21:14 | 37.57374 | -123.70710 | 38028 ft | 441 kts | 252° |
| 2026-05-03 21:14 | 37.55523 | -123.78083 | 38021 ft | 441 kts | 251° |
| 2026-05-03 21:15 | 37.53660 | -123.85510 | 38015 ft | 441 kts | 252° |
| 2026-05-03 21:15 | 37.51818 | -123.92828 | 38015 ft | 441 kts | 251° |
| 2026-05-03 21:16 | 37.49800 | -124.00119 | 38017 ft | 441 kts | 244° |
| 2026-05-03 21:16 | 37.46679 | -124.06743 | 38016 ft | 440 kts | 238° |
| 2026-05-03 21:17 | 37.43971 | -124.12229 | 38011 ft | 440 kts | 238° |
| 2026-05-03 21:17 | 37.40216 | -124.19830 | 38010 ft | 440 kts | 238° |
| 2026-05-03 21:18 | 37.36983 | -124.26364 | 38014 ft | 440 kts | 238° |
| 2026-05-03 21:18 | 37.33746 | -124.32891 | 38014 ft | 440 kts | 238° |
| 2026-05-03 21:19 | 37.30498 | -124.39412 | 38011 ft | 440 kts | 238° |
| 2026-05-03 21:19 | 37.27240 | -124.45930 | 38012 ft | 440 kts | 238° |
| 2026-05-03 21:20 | 37.23984 | -124.52444 | 38016 ft | 440 kts | 238° |
| 2026-05-03 21:20 | 37.20727 | -124.58953 | 38020 ft | 440 kts | 238° |
| 2026-05-03 21:21 | 37.17471 | -124.65455 | 38019 ft | 440 kts | 238° |
| 2026-05-03 21:21 | 37.14216 | -124.71958 | 38018 ft | 440 kts | 238° |
| 2026-05-03 21:22 | 37.10966 | -124.78402 | 38018 ft | 440 kts | 238° |
| 2026-05-03 21:22 | 37.07696 | -124.84882 | 38016 ft | 440 kts | 238° |
| 2026-05-03 21:23 | 37.04416 | -124.91362 | 38017 ft | 441 kts | 238° |
| 2026-05-03 21:23 | 37.01138 | -124.97842 | 38018 ft | 441 kts | 238° |
| 2026-05-03 21:24 | 36.98725 | -125.04850 | 38031 ft | 440 kts | 251° |
| 2026-05-03 21:24 | 36.96786 | -125.12100 | 38026 ft | 440 kts | 251° |
| 2026-05-03 21:25 | 36.94822 | -125.19342 | 38026 ft | 440 kts | 251° |
| 2026-05-03 21:25 | 36.92850 | -125.26585 | 38029 ft | 440 kts | 251° |
| 2026-05-03 21:26 | 36.90884 | -125.33830 | 38022 ft | 440 kts | 251° |
| 2026-05-03 21:26 | 36.88915 | -125.41078 | 38027 ft | 441 kts | 251° |
| 2026-05-03 21:27 | 36.86950 | -125.48274 | 38028 ft | 441 kts | 251° |
| 2026-05-03 21:27 | 36.84968 | -125.55512 | 38032 ft | 440 kts | 251° |
| 2026-05-03 21:28 | 36.82980 | -125.62740 | 38031 ft | 440 kts | 251° |
| 2026-05-03 21:28 | 36.80991 | -125.69968 | 38032 ft | 440 kts | 251° |
| 2026-05-03 21:29 | 36.78998 | -125.77185 | 38037 ft | 440 kts | 251° |
| 2026-05-03 21:29 | 36.76994 | -125.84397 | 38036 ft | 440 kts | 251° |
| 2026-05-03 21:30 | 36.74997 | -125.91603 | 38038 ft | 440 kts | 251° |
| 2026-05-03 21:30 | 36.72997 | -125.98807 | 38037 ft | 440 kts | 251° |
| 2026-05-03 21:31 | 36.71327 | -126.04792 | 38034 ft | 440 kts | 251° |
| 2026-05-03 21:31 | 36.69308 | -126.11984 | 38033 ft | 440 kts | 251° |
| 2026-05-03 21:32 | 36.67293 | -126.19177 | 38034 ft | 440 kts | 251° |
| 2026-05-03 21:32 | 36.65276 | -126.26366 | 38036 ft | 440 kts | 251° |
| 2026-05-03 21:33 | 36.63249 | -126.33555 | 38036 ft | 440 kts | 251° |
| 2026-05-03 21:33 | 36.61221 | -126.40745 | 38039 ft | 440 kts | 251° |
| 2026-05-03 21:34 | 36.59189 | -126.47930 | 38041 ft | 440 kts | 251° |
| 2026-05-03 21:34 | 36.57146 | -126.55111 | 38045 ft | 440 kts | 251° |
| 2026-05-03 21:35 | 36.55095 | -126.62288 | 38044 ft | 440 kts | 251° |
| 2026-05-03 21:35 | 36.53046 | -126.69457 | 38045 ft | 440 kts | 251° |
| 2026-05-03 21:36 | 36.51009 | -126.76568 | 38046 ft | 440 kts | 251° |
| 2026-05-03 21:36 | 36.48959 | -126.83729 | 38046 ft | 440 kts | 251° |
| 2026-05-03 21:37 | 36.46897 | -126.90886 | 38046 ft | 440 kts | 250° |
| 2026-05-03 21:37 | 36.44832 | -126.98037 | 38051 ft | 440 kts | 250° |
| 2026-05-03 21:38 | 36.42766 | -127.05182 | 38046 ft | 440 kts | 250° |
| 2026-05-03 21:38 | 36.40682 | -127.12322 | 38048 ft | 440 kts | 250° |
| 2026-05-03 21:39 | 36.38594 | -127.19465 | 38053 ft | 440 kts | 250° |
| 2026-05-03 21:39 | 36.36514 | -127.26606 | 38052 ft | 440 kts | 250° |
| 2026-05-03 21:40 | 36.34424 | -127.33743 | 38052 ft | 440 kts | 250° |
| 2026-05-03 21:40 | 36.32327 | -127.40873 | 38053 ft | 440 kts | 250° |
| 2026-05-03 21:41 | 36.30225 | -127.48002 | 38054 ft | 440 kts | 250° |
| 2026-05-03 21:41 | 36.28126 | -127.55125 | 38061 ft | 440 kts | 250° |
| 2026-05-03 21:42 | 36.26029 | -127.62237 | 38058 ft | 439 kts | 250° |
| 2026-05-03 21:42 | 36.23937 | -127.69294 | 38058 ft | 439 kts | 250° |
| 2026-05-03 21:43 | 36.21821 | -127.76387 | 38056 ft | 439 kts | 250° |
| 2026-05-03 21:43 | 36.19709 | -127.83474 | 38059 ft | 439 kts | 250° |
| 2026-05-03 21:44 | 36.17586 | -127.90555 | 38060 ft | 439 kts | 250° |
| 2026-05-03 21:44 | 36.15468 | -127.97641 | 38056 ft | 439 kts | 251° |
| 2026-05-03 21:45 | 36.13348 | -128.04716 | 38059 ft | 439 kts | 250° |
| 2026-05-03 21:45 | 36.11216 | -128.11781 | 38063 ft | 438 kts | 250° |
| 2026-05-03 21:46 | 36.09080 | -128.18836 | 38063 ft | 438 kts | 250° |
| 2026-05-03 21:46 | 36.06939 | -128.25883 | 38052 ft | 438 kts | 250° |
| 2026-05-03 21:47 | 36.04805 | -128.32932 | 38055 ft | 438 kts | 251° |
| 2026-05-03 21:47 | 36.02666 | -128.39986 | 38059 ft | 438 kts | 250° |
| 2026-05-03 21:48 | 36.00517 | -128.47032 | 38058 ft | 438 kts | 250° |
| 2026-05-03 21:48 | 35.98360 | -128.54076 | 38063 ft | 439 kts | 250° |
| 2026-05-03 21:49 | 35.96214 | -128.61069 | 38062 ft | 439 kts | 250° |
| 2026-05-03 21:49 | 35.94053 | -128.68113 | 38062 ft | 439 kts | 250° |
| 2026-05-03 21:50 | 35.91886 | -128.75151 | 38068 ft | 439 kts | 250° |
| 2026-05-03 21:50 | 35.89714 | -128.82190 | 38073 ft | 439 kts | 250° |
| 2026-05-03 21:51 | 35.87541 | -128.89224 | 38061 ft | 439 kts | 250° |
| 2026-05-03 21:51 | 35.85358 | -128.96254 | 38071 ft | 439 kts | 250° |
| 2026-05-03 21:52 | 35.83172 | -129.03278 | 38077 ft | 439 kts | 250° |
| 2026-05-03 21:52 | 35.80978 | -129.10295 | 38078 ft | 439 kts | 250° |
| 2026-05-03 21:53 | 35.78783 | -129.17312 | 38071 ft | 439 kts | 250° |
| 2026-05-03 21:53 | 35.76588 | -129.24321 | 38083 ft | 438 kts | 250° |
| 2026-05-03 21:54 | 35.74388 | -129.31320 | 38089 ft | 438 kts | 250° |
| 2026-05-03 21:54 | 35.72189 | -129.38309 | 38072 ft | 438 kts | 250° |
| 2026-05-03 21:55 | 35.69984 | -129.45293 | 38079 ft | 438 kts | 250° |
| 2026-05-03 21:55 | 35.67781 | -129.52270 | 38084 ft | 438 kts | 250° |
| 2026-05-03 21:56 | 35.65592 | -129.59203 | 38069 ft | 438 kts | 250° |
| 2026-05-03 21:56 | 35.63380 | -129.66168 | 38082 ft | 437 kts | 250° |
| 2026-05-03 21:57 | 35.61156 | -129.73126 | 38087 ft | 437 kts | 250° |
| 2026-05-03 21:57 | 35.58934 | -129.80078 | 38090 ft | 437 kts | 250° |
| 2026-05-03 21:58 | 35.56707 | -129.87021 | 38081 ft | 437 kts | 250° |
| 2026-05-03 21:58 | 35.54479 | -129.93956 | 38087 ft | 436 kts | 250° |
| 2026-05-03 21:59 | 35.52258 | -130.00888 | 38094 ft | 436 kts | 250° |
| 2026-05-03 21:59 | 35.50028 | -130.07810 | 38087 ft | 436 kts | 250° |
| 2026-05-03 22:00 | 35.47791 | -130.14726 | 38099 ft | 436 kts | 250° |
| 2026-05-03 22:00 | 35.45549 | -130.21631 | 38106 ft | 436 kts | 250° |
| 2026-05-03 22:01 | 35.43307 | -130.28526 | 38092 ft | 435 kts | 251° |
| 2026-05-03 22:01 | 35.41069 | -130.35420 | 38098 ft | 435 kts | 251° |
| 2026-05-03 22:02 | 35.38830 | -130.42307 | 38107 ft | 435 kts | 251° |
| 2026-05-03 22:02 | 35.36582 | -130.49196 | 38088 ft | 436 kts | 251° |
| 2026-05-03 22:03 | 35.34322 | -130.56100 | 38081 ft | 437 kts | 251° |
| 2026-05-03 22:03 | 35.32049 | -130.63018 | 38081 ft | 438 kts | 251° |
| 2026-05-03 22:04 | 35.29768 | -130.69951 | 38088 ft | 439 kts | 251° |
| 2026-05-03 22:04 | 35.27495 | -130.76841 | 38096 ft | 440 kts | 250° |
| 2026-05-03 22:05 | 35.25192 | -130.83785 | 38099 ft | 440 kts | 250° |
| 2026-05-03 22:05 | 35.22892 | -130.90733 | 38105 ft | 441 kts | 250° |
| 2026-05-03 22:06 | 35.20597 | -130.97675 | 38104 ft | 440 kts | 251° |
| 2026-05-03 22:06 | 35.18297 | -131.04609 | 38110 ft | 440 kts | 251° |
| 2026-05-03 22:07 | 35.15982 | -131.11527 | 38112 ft | 440 kts | 250° |
| 2026-05-03 22:07 | 35.13659 | -131.18444 | 38107 ft | 440 kts | 251° |
| 2026-05-03 22:08 | 35.11347 | -131.25355 | 38112 ft | 439 kts | 251° |
| 2026-05-03 22:08 | 35.09036 | -131.32258 | 38116 ft | 439 kts | 251° |
| 2026-05-03 22:09 | 35.06713 | -131.39155 | 38098 ft | 439 kts | 251° |
| 2026-05-03 22:10 | 35.03222 | -131.49492 | 38107 ft | 439 kts | 251° |
| 2026-05-03 22:10 | 35.00889 | -131.56381 | 38085 ft | 439 kts | 251° |
| 2026-05-03 22:11 | 34.98554 | -131.63259 | 38100 ft | 439 kts | 251° |
| 2026-05-03 22:11 | 34.96236 | -131.70093 | 38109 ft | 439 kts | 251° |
| 2026-05-03 22:12 | 34.93895 | -131.76961 | 38115 ft | 439 kts | 251° |
| 2026-05-03 22:12 | 34.91548 | -131.83824 | 38100 ft | 439 kts | 251° |
| 2026-05-03 22:13 | 34.89200 | -131.90685 | 38112 ft | 439 kts | 251° |
| 2026-05-03 22:13 | 34.86852 | -131.97547 | 38117 ft | 439 kts | 251° |
| 2026-05-03 22:14 | 34.84496 | -132.04402 | 38099 ft | 439 kts | 251° |
| 2026-05-03 22:14 | 34.82132 | -132.11258 | 38108 ft | 439 kts | 251° |
| 2026-05-03 22:15 | 34.79761 | -132.18107 | 38119 ft | 439 kts | 251° |
| 2026-05-03 22:15 | 34.77391 | -132.24952 | 38101 ft | 439 kts | 252° |
| 2026-05-03 22:16 | 34.75028 | -132.31799 | 38113 ft | 439 kts | 252° |
| 2026-05-03 22:16 | 34.72645 | -132.38631 | 38125 ft | 439 kts | 251° |
| 2026-05-03 22:17 | 34.70260 | -132.45458 | 38106 ft | 439 kts | 252° |
| 2026-05-03 22:17 | 34.67876 | -132.52288 | 38113 ft | 439 kts | 252° |
| 2026-05-03 22:18 | 34.65492 | -132.59112 | 38121 ft | 439 kts | 252° |
| 2026-05-03 22:18 | 34.63108 | -132.65944 | 38126 ft | 440 kts | 252° |
| 2026-05-03 22:19 | 34.60707 | -132.72781 | 38135 ft | 440 kts | 252° |
| 2026-05-03 22:19 | 34.58299 | -132.79611 | 38144 ft | 440 kts | 252° |
| 2026-05-03 22:20 | 34.55888 | -132.86435 | 38146 ft | 440 kts | 252° |
| 2026-05-03 22:20 | 34.53476 | -132.93254 | 38146 ft | 440 kts | 252° |
| 2026-05-03 22:21 | 34.51055 | -133.00081 | 38155 ft | 441 kts | 252° |
| 2026-05-03 22:21 | 34.48625 | -133.06925 | 38139 ft | 444 kts | 253° |
| 2026-05-03 22:22 | 34.46597 | -133.12643 | 38148 ft | 444 kts | 253° |
| 2026-05-03 22:22 | 34.44143 | -133.19517 | 38150 ft | 444 kts | 252° |
| 2026-05-03 22:23 | 34.41675 | -133.26383 | 38140 ft | 445 kts | 253° |
| 2026-05-03 22:23 | 34.39213 | -133.33262 | 38149 ft | 445 kts | 253° |
| 2026-05-03 22:24 | 34.36751 | -133.40134 | 38162 ft | 445 kts | 253° |
| 2026-05-03 22:24 | 34.34280 | -133.47005 | 38123 ft | 445 kts | 253° |
| 2026-05-03 22:25 | 34.31800 | -133.53875 | 38141 ft | 446 kts | 253° |
| 2026-05-03 22:25 | 34.29315 | -133.60746 | 38158 ft | 446 kts | 253° |
| 2026-05-03 22:26 | 34.26829 | -133.67618 | 38142 ft | 446 kts | 253° |
| 2026-05-03 22:26 | 34.24337 | -133.74491 | 38155 ft | 447 kts | 253° |
| 2026-05-03 22:27 | 34.21848 | -133.81321 | 38167 ft | 447 kts | 253° |
| 2026-05-03 22:27 | 34.19343 | -133.88187 | 38146 ft | 447 kts | 253° |
| 2026-05-03 22:28 | 34.16848 | -133.95055 | 38161 ft | 447 kts | 253° |
| 2026-05-03 22:28 | 34.14339 | -134.01925 | 38169 ft | 447 kts | 253° |
| 2026-05-03 22:29 | 34.11825 | -134.08784 | 38154 ft | 447 kts | 253° |
| 2026-05-03 22:29 | 34.09308 | -134.15637 | 38164 ft | 447 kts | 253° |
| 2026-05-03 22:30 | 34.06777 | -134.22481 | 38168 ft | 447 kts | 253° |
| 2026-05-03 22:30 | 34.04246 | -134.29326 | 38156 ft | 447 kts | 253° |
| 2026-05-03 22:31 | 34.01715 | -134.36177 | 38163 ft | 447 kts | 253° |
| 2026-05-03 22:31 | 33.99180 | -134.43029 | 38141 ft | 448 kts | 253° |
| 2026-05-03 22:32 | 33.96660 | -134.49836 | 38156 ft | 448 kts | 253° |
| 2026-05-03 22:32 | 33.94112 | -134.56694 | 38165 ft | 449 kts | 253° |
| 2026-05-03 22:33 | 33.91558 | -134.63552 | 38149 ft | 449 kts | 253° |
| 2026-05-03 22:33 | 33.89003 | -134.70414 | 38164 ft | 449 kts | 253° |
| 2026-05-03 22:34 | 33.86434 | -134.77277 | 38175 ft | 450 kts | 253° |
| 2026-05-03 22:34 | 33.83864 | -134.84138 | 38176 ft | 450 kts | 253° |
| 2026-05-03 22:35 | 33.81285 | -134.90996 | 38180 ft | 450 kts | 253° |
| 2026-05-03 22:35 | 33.78710 | -134.97857 | 38182 ft | 450 kts | 252° |
| 2026-05-03 22:36 | 33.76122 | -135.04710 | 38189 ft | 450 kts | 252° |
| 2026-05-03 22:36 | 33.73534 | -135.11553 | 38197 ft | 450 kts | 252° |
| 2026-05-03 22:37 | 33.70960 | -135.18343 | 38201 ft | 450 kts | 252° |
| 2026-05-03 22:37 | 33.68364 | -135.25178 | 38185 ft | 450 kts | 252° |
| 2026-05-03 22:38 | 33.65767 | -135.32013 | 38189 ft | 450 kts | 252° |
| 2026-05-03 22:38 | 33.63168 | -135.38853 | 38183 ft | 451 kts | 252° |
| 2026-05-03 22:39 | 33.60555 | -135.45693 | 38170 ft | 451 kts | 252° |
| 2026-05-03 22:39 | 33.57937 | -135.52527 | 38183 ft | 451 kts | 252° |
| 2026-05-03 22:40 | 33.55316 | -135.59363 | 38182 ft | 451 kts | 252° |
| 2026-05-03 22:40 | 33.52693 | -135.66198 | 38174 ft | 451 kts | 251° |
| 2026-05-03 22:41 | 33.50062 | -135.73030 | 38183 ft | 452 kts | 251° |
| 2026-05-03 22:41 | 33.47428 | -135.79864 | 38182 ft | 452 kts | 252° |
| 2026-05-03 22:42 | 33.44788 | -135.86708 | 38194 ft | 453 kts | 251° |
| 2026-05-03 22:42 | 33.42132 | -135.93558 | 38200 ft | 454 kts | 251° |
| 2026-05-03 22:43 | 33.39466 | -136.00403 | 38198 ft | 454 kts | 251° |
| 2026-05-03 22:43 | 33.36818 | -136.07215 | 38202 ft | 454 kts | 251° |
| 2026-05-03 22:44 | 33.34159 | -136.14071 | 38188 ft | 454 kts | 251° |
| 2026-05-03 22:44 | 33.31480 | -136.20915 | 38195 ft | 455 kts | 251° |
| 2026-05-03 22:45 | 33.28801 | -136.27766 | 38204 ft | 455 kts | 251° |
| 2026-05-03 22:45 | 33.26116 | -136.34613 | 38192 ft | 455 kts | 250° |
| 2026-05-03 22:46 | 33.23418 | -136.41464 | 38195 ft | 456 kts | 250° |
| 2026-05-03 22:46 | 33.20720 | -136.48312 | 38204 ft | 456 kts | 250° |
| 2026-05-03 22:47 | 33.18027 | -136.55167 | 38212 ft | 456 kts | 250° |
| 2026-05-03 22:47 | 33.15318 | -136.62021 | 38197 ft | 457 kts | 250° |
| 2026-05-03 22:48 | 33.12599 | -136.68875 | 38205 ft | 458 kts | 250° |
| 2026-05-03 22:48 | 33.09895 | -136.75696 | 38213 ft | 458 kts | 250° |
| 2026-05-03 22:49 | 33.07168 | -136.82562 | 38215 ft | 458 kts | 250° |
| 2026-05-03 22:49 | 33.04431 | -136.89429 | 38220 ft | 459 kts | 250° |
| 2026-05-03 22:50 | 33.01694 | -136.96295 | 38227 ft | 459 kts | 250° |
| 2026-05-03 22:50 | 32.98953 | -137.03157 | 38215 ft | 459 kts | 249° |
| 2026-05-03 22:51 | 32.96197 | -137.10018 | 38214 ft | 459 kts | 249° |
| 2026-05-03 22:51 | 32.93438 | -137.16876 | 38219 ft | 459 kts | 249° |
| 2026-05-03 22:52 | 32.90677 | -137.23740 | 38212 ft | 460 kts | 249° |
| 2026-05-03 22:52 | 32.87914 | -137.30611 | 38208 ft | 460 kts | 249° |
| 2026-05-03 22:53 | 32.85139 | -137.37478 | 38213 ft | 461 kts | 249° |
| 2026-05-03 22:53 | 32.82362 | -137.44353 | 38214 ft | 461 kts | 249° |
| 2026-05-03 22:54 | 32.79579 | -137.51228 | 38210 ft | 462 kts | 249° |
| 2026-05-03 22:54 | 32.76781 | -137.58100 | 38220 ft | 462 kts | 249° |
| 2026-05-03 22:55 | 32.74003 | -137.64924 | 38211 ft | 462 kts | 249° |
| 2026-05-03 22:55 | 32.71200 | -137.71793 | 38214 ft | 462 kts | 249° |
| 2026-05-03 22:56 | 32.68394 | -137.78670 | 38215 ft | 463 kts | 248° |
| 2026-05-03 22:56 | 32.65580 | -137.85546 | 38213 ft | 463 kts | 248° |
| 2026-05-03 22:57 | 32.62755 | -137.92425 | 38221 ft | 464 kts | 248° |
| 2026-05-03 22:57 | 32.59924 | -137.99308 | 38227 ft | 464 kts | 248° |
| 2026-05-03 22:58 | 32.57087 | -138.06190 | 38215 ft | 465 kts | 248° |
| 2026-05-03 22:58 | 32.54240 | -138.13079 | 38219 ft | 465 kts | 248° |
| 2026-05-03 22:59 | 32.51391 | -138.19970 | 38222 ft | 466 kts | 248° |
| 2026-05-03 22:59 | 32.48539 | -138.26863 | 38223 ft | 466 kts | 248° |
| 2026-05-03 23:00 | 32.45674 | -138.33751 | 38225 ft | 466 kts | 248° |
| 2026-05-03 23:00 | 32.42805 | -138.40642 | 38229 ft | 467 kts | 248° |
| 2026-05-03 23:01 | 32.39932 | -138.47530 | 38227 ft | 467 kts | 247° |
| 2026-05-03 23:01 | 32.37057 | -138.54423 | 38225 ft | 467 kts | 247° |
| 2026-05-03 23:02 | 32.34170 | -138.61318 | 38236 ft | 468 kts | 247° |
| 2026-05-03 23:02 | 32.31284 | -138.68216 | 38229 ft | 468 kts | 247° |
| 2026-05-03 23:03 | 32.28415 | -138.75067 | 38226 ft | 468 kts | 247° |
| 2026-05-03 23:03 | 32.25515 | -138.81960 | 38225 ft | 469 kts | 246° |
| 2026-05-03 23:04 | 32.22597 | -138.88854 | 38233 ft | 469 kts | 246° |
| 2026-05-03 23:04 | 32.19680 | -138.95742 | 38236 ft | 469 kts | 246° |
| 2026-05-03 23:05 | 32.16769 | -139.02641 | 38231 ft | 469 kts | 246° |
| 2026-05-03 23:05 | 32.13851 | -139.09534 | 38228 ft | 470 kts | 246° |
| 2026-05-03 23:06 | 32.10920 | -139.16421 | 38227 ft | 470 kts | 246° |
| 2026-05-03 23:06 | 32.07988 | -139.23308 | 38229 ft | 470 kts | 246° |
| 2026-05-03 23:07 | 32.05058 | -139.30195 | 38239 ft | 470 kts | 246° |
| 2026-05-03 23:07 | 32.02119 | -139.37085 | 38230 ft | 471 kts | 246° |
| 2026-05-03 23:08 | 31.99168 | -139.43970 | 38229 ft | 471 kts | 246° |
| 2026-05-03 23:08 | 31.96206 | -139.50844 | 38228 ft | 471 kts | 246° |
| 2026-05-03 23:09 | 31.93249 | -139.57716 | 38227 ft | 471 kts | 246° |
| 2026-05-03 23:09 | 31.90294 | -139.64590 | 38227 ft | 471 kts | 246° |
| 2026-05-03 23:10 | 31.87333 | -139.71462 | 38227 ft | 471 kts | 245° |
| 2026-05-03 23:10 | 31.84365 | -139.78331 | 38222 ft | 471 kts | 245° |
| 2026-05-03 23:11 | 31.81397 | -139.85187 | 38224 ft | 471 kts | 245° |
| 2026-05-03 23:11 | 31.78421 | -139.92044 | 38232 ft | 471 kts | 245° |
| 2026-05-03 23:12 | 31.75465 | -139.98854 | 38218 ft | 471 kts | 245° |
| 2026-05-03 23:12 | 31.72484 | -140.05699 | 38223 ft | 470 kts | 245° |
| 2026-05-03 23:13 | 31.69500 | -140.12533 | 38228 ft | 470 kts | 245° |
| 2026-05-03 23:13 | 31.66507 | -140.19362 | 38231 ft | 470 kts | 245° |
| 2026-05-03 23:14 | 31.63517 | -140.26182 | 38231 ft | 470 kts | 245° |
| 2026-05-03 23:14 | 31.60532 | -140.32996 | 38233 ft | 470 kts | 245° |
| 2026-05-03 23:15 | 31.58052 | -140.38665 | 38237 ft | 470 kts | 245° |
| 2026-05-03 23:15 | 31.55051 | -140.45479 | 38229 ft | 470 kts | 245° |
| 2026-05-03 23:16 | 31.52046 | -140.52283 | 38243 ft | 470 kts | 245° |
| 2026-05-03 23:16 | 31.49038 | -140.59084 | 38245 ft | 470 kts | 245° |
| 2026-05-03 23:17 | 31.46032 | -140.65883 | 38234 ft | 470 kts | 245° |
| 2026-05-03 23:17 | 31.43024 | -140.72677 | 38243 ft | 469 kts | 244° |
| 2026-05-03 23:18 | 31.40009 | -140.79452 | 38243 ft | 469 kts | 244° |
| 2026-05-03 23:18 | 31.36994 | -140.86222 | 38241 ft | 469 kts | 244° |
| 2026-05-03 23:19 | 31.33973 | -140.92984 | 38234 ft | 469 kts | 244° |
| 2026-05-03 23:19 | 31.30951 | -140.99743 | 38242 ft | 469 kts | 244° |
| 2026-05-03 23:20 | 31.27932 | -141.06488 | 38234 ft | 468 kts | 244° |
| 2026-05-03 23:20 | 31.24915 | -141.13231 | 38236 ft | 468 kts | 244° |
| 2026-05-03 23:21 | 31.21895 | -141.19972 | 38227 ft | 469 kts | 244° |
| 2026-05-03 23:21 | 31.18856 | -141.26713 | 38229 ft | 469 kts | 244° |
| 2026-05-03 23:22 | 31.14315 | -141.36778 | 38230 ft | 469 kts | 244° |
| 2026-05-03 23:22 | 31.11266 | -141.43514 | 38241 ft | 469 kts | 244° |
| 2026-05-03 23:23 | 31.08211 | -141.50251 | 38241 ft | 470 kts | 244° |
| 2026-05-03 23:23 | 31.05148 | -141.56982 | 38246 ft | 470 kts | 244° |
| 2026-05-03 23:24 | 31.02087 | -141.63718 | 38248 ft | 470 kts | 244° |
| 2026-05-03 23:24 | 30.99028 | -141.70445 | 38250 ft | 470 kts | 244° |
| 2026-05-03 23:25 | 30.95958 | -141.77175 | 38250 ft | 470 kts | 244° |
| 2026-05-03 23:25 | 30.92882 | -141.83892 | 38243 ft | 470 kts | 244° |
| 2026-05-03 23:26 | 30.89803 | -141.90603 | 38254 ft | 469 kts | 244° |
| 2026-05-03 23:26 | 30.86727 | -141.97303 | 38250 ft | 469 kts | 244° |
| 2026-05-03 23:27 | 30.83670 | -142.03958 | 38248 ft | 469 kts | 244° |
| 2026-05-03 23:27 | 30.80597 | -142.10650 | 38248 ft | 469 kts | 243° |
| 2026-05-03 23:28 | 30.77520 | -142.17327 | 38249 ft | 468 kts | 243° |
| 2026-05-03 23:28 | 30.74437 | -142.23997 | 38248 ft | 468 kts | 243° |
| 2026-05-03 23:29 | 30.71348 | -142.30660 | 38231 ft | 468 kts | 243° |
| 2026-05-03 23:29 | 30.68253 | -142.37313 | 38244 ft | 468 kts | 243° |
| 2026-05-03 23:30 | 30.65163 | -142.43958 | 38247 ft | 467 kts | 243° |
| 2026-05-03 23:30 | 30.62081 | -142.50601 | 38248 ft | 467 kts | 243° |
| 2026-05-03 23:31 | 30.58990 | -142.57240 | 38245 ft | 467 kts | 243° |
| 2026-05-03 23:31 | 30.55890 | -142.63866 | 38249 ft | 467 kts | 243° |
| 2026-05-03 23:32 | 30.52793 | -142.70484 | 38252 ft | 467 kts | 243° |
| 2026-05-03 23:32 | 30.49686 | -142.77092 | 38241 ft | 466 kts | 243° |
| 2026-05-03 23:33 | 30.46585 | -142.83689 | 38250 ft | 465 kts | 243° |
| 2026-05-03 23:33 | 30.43494 | -142.90272 | 38254 ft | 465 kts | 243° |
| 2026-05-03 23:34 | 30.40400 | -142.96845 | 38256 ft | 464 kts | 243° |
| 2026-05-03 23:34 | 30.37303 | -143.03400 | 38252 ft | 464 kts | 243° |
| 2026-05-03 23:35 | 30.34208 | -143.09948 | 38247 ft | 463 kts | 243° |
| 2026-05-03 23:35 | 30.31111 | -143.16478 | 38245 ft | 463 kts | 243° |
| 2026-05-03 23:36 | 30.28016 | -143.23008 | 38248 ft | 463 kts | 243° |
| 2026-05-03 23:36 | 30.24921 | -143.29527 | 38247 ft | 462 kts | 243° |
| 2026-05-03 23:37 | 30.21832 | -143.36032 | 38247 ft | 461 kts | 243° |
| 2026-05-03 23:37 | 30.18736 | -143.42526 | 38244 ft | 461 kts | 242° |
| 2026-05-03 23:38 | 30.15641 | -143.49010 | 38247 ft | 461 kts | 242° |
| 2026-05-03 23:38 | 30.12563 | -143.55446 | 38246 ft | 461 kts | 242° |
| 2026-05-03 23:39 | 30.09441 | -143.61963 | 38239 ft | 461 kts | 242° |
| 2026-05-03 23:39 | 30.06359 | -143.68390 | 38235 ft | 461 kts | 242° |
| 2026-05-03 23:40 | 30.03253 | -143.74863 | 38223 ft | 461 kts | 242° |
| 2026-05-03 23:40 | 30.00140 | -143.81320 | 38244 ft | 460 kts | 242° |
| 2026-05-03 23:41 | 29.97028 | -143.87755 | 38248 ft | 459 kts | 242° |
| 2026-05-03 23:41 | 29.93919 | -143.94187 | 38247 ft | 459 kts | 242° |
| 2026-05-03 23:42 | 29.90814 | -144.00620 | 38237 ft | 459 kts | 242° |
| 2026-05-03 23:42 | 29.87703 | -144.07042 | 38251 ft | 458 kts | 242° |
| 2026-05-03 23:43 | 29.84594 | -144.13449 | 38254 ft | 458 kts | 242° |
| 2026-05-03 23:43 | 29.81483 | -144.19838 | 38246 ft | 457 kts | 242° |
| 2026-05-03 23:44 | 29.78380 | -144.26224 | 38231 ft | 456 kts | 242° |
| 2026-05-03 23:44 | 29.75278 | -144.32586 | 38245 ft | 455 kts | 242° |
| 2026-05-03 23:45 | 29.72204 | -144.38886 | 38246 ft | 454 kts | 242° |
| 2026-05-03 23:45 | 29.69106 | -144.45215 | 38246 ft | 454 kts | 242° |
| 2026-05-03 23:46 | 29.66004 | -144.51533 | 38237 ft | 453 kts | 242° |
| 2026-05-03 23:46 | 29.62913 | -144.57840 | 38241 ft | 452 kts | 242° |
| 2026-05-03 23:47 | 29.59825 | -144.64129 | 38237 ft | 451 kts | 242° |
| 2026-05-03 23:47 | 29.56737 | -144.70404 | 38234 ft | 451 kts | 242° |
| 2026-05-03 23:48 | 29.53649 | -144.76673 | 38226 ft | 451 kts | 242° |
| 2026-05-03 23:48 | 29.50556 | -144.82928 | 38241 ft | 450 kts | 242° |
| 2026-05-03 23:49 | 29.47487 | -144.89128 | 38239 ft | 450 kts | 242° |
| 2026-05-03 23:49 | 29.44384 | -144.95407 | 38236 ft | 449 kts | 242° |
| 2026-05-03 23:50 | 29.41818 | -145.00579 | 38239 ft | 449 kts | 242° |
| 2026-05-03 23:50 | 29.38220 | -145.07795 | 38235 ft | 448 kts | 242° |
| 2026-05-03 23:51 | 29.35133 | -145.13993 | 38236 ft | 447 kts | 243° |
| 2026-05-03 23:51 | 29.32048 | -145.20184 | 38235 ft | 447 kts | 243° |
| 2026-05-03 23:52 | 29.28967 | -145.26364 | 38232 ft | 447 kts | 243° |
| 2026-05-03 23:52 | 29.25879 | -145.32534 | 38227 ft | 446 kts | 242° |
| 2026-05-03 23:53 | 29.22793 | -145.38696 | 38225 ft | 446 kts | 243° |
| 2026-05-03 23:53 | 29.19710 | -145.44850 | 38225 ft | 445 kts | 242° |
| 2026-05-03 23:54 | 29.16625 | -145.50992 | 38227 ft | 445 kts | 242° |
| 2026-05-03 23:54 | 29.13531 | -145.57127 | 38228 ft | 445 kts | 242° |
| 2026-05-03 23:55 | 29.10448 | -145.63248 | 38231 ft | 444 kts | 242° |
| 2026-05-03 23:55 | 29.07377 | -145.69358 | 38227 ft | 443 kts | 242° |
| 2026-05-03 23:56 | 29.04302 | -145.75458 | 38221 ft | 443 kts | 242° |
| 2026-05-03 23:56 | 29.01214 | -145.81536 | 38219 ft | 442 kts | 242° |
| 2026-05-03 23:57 | 28.98130 | -145.87600 | 38220 ft | 441 kts | 242° |
| 2026-05-03 23:57 | 28.95069 | -145.93618 | 38217 ft | 441 kts | 242° |
| 2026-05-03 23:58 | 28.91993 | -145.99678 | 38208 ft | 441 kts | 242° |
| 2026-05-03 23:58 | 28.88922 | -146.05734 | 38209 ft | 441 kts | 242° |
| 2026-05-03 23:59 | 28.85839 | -146.11782 | 38211 ft | 441 kts | 242° |
| 2026-05-03 23:59 | 28.82748 | -146.17825 | 38212 ft | 441 kts | 242° |
| 2026-05-04 00:00 | 28.79663 | -146.23867 | 38213 ft | 441 kts | 242° |
| 2026-05-04 00:00 | 28.76578 | -146.29899 | 38208 ft | 440 kts | 242° |
| 2026-05-04 00:01 | 28.73487 | -146.35922 | 38208 ft | 440 kts | 242° |
| 2026-05-04 00:01 | 28.70398 | -146.41934 | 38209 ft | 439 kts | 242° |
| 2026-05-04 00:02 | 28.67309 | -146.47937 | 38208 ft | 439 kts | 242° |
| 2026-05-04 00:02 | 28.64213 | -146.53935 | 38210 ft | 439 kts | 241° |
| 2026-05-04 00:03 | 28.61124 | -146.59933 | 38209 ft | 439 kts | 241° |
| 2026-05-04 00:03 | 28.58032 | -146.65925 | 38210 ft | 439 kts | 241° |
| 2026-05-04 00:04 | 28.54941 | -146.71904 | 38211 ft | 438 kts | 241° |
| 2026-05-04 00:04 | 28.51850 | -146.77874 | 38211 ft | 438 kts | 241° |
| 2026-05-04 00:05 | 28.49277 | -146.82835 | 38213 ft | 438 kts | 241° |
| 2026-05-04 00:05 | 28.46176 | -146.88798 | 38206 ft | 438 kts | 241° |
| 2026-05-04 00:06 | 28.42576 | -146.95718 | 38205 ft | 438 kts | 241° |
| 2026-05-04 00:06 | 28.39478 | -147.01669 | 38207 ft | 437 kts | 241° |
| 2026-05-04 00:07 | 28.36884 | -147.06648 | 38212 ft | 437 kts | 241° |
| 2026-05-04 00:07 | 28.33780 | -147.12585 | 38206 ft | 437 kts | 241° |
| 2026-05-04 00:08 | 28.30671 | -147.18514 | 38206 ft | 437 kts | 241° |
| 2026-05-04 00:08 | 28.27594 | -147.24402 | 38196 ft | 437 kts | 241° |
| 2026-05-04 00:09 | 28.24493 | -147.30322 | 38204 ft | 436 kts | 241° |
| 2026-05-04 00:09 | 28.21389 | -147.36234 | 38204 ft | 436 kts | 241° |
| 2026-05-04 00:10 | 28.18279 | -147.42141 | 38201 ft | 436 kts | 241° |
| 2026-05-04 00:10 | 28.15166 | -147.48048 | 38198 ft | 437 kts | 241° |
| 2026-05-04 00:11 | 28.12049 | -147.53953 | 38198 ft | 437 kts | 241° |
| 2026-05-04 00:11 | 28.08933 | -147.59851 | 38202 ft | 436 kts | 241° |
| 2026-05-04 00:12 | 28.05815 | -147.65747 | 38189 ft | 436 kts | 242° |
| 2026-05-04 00:12 | 28.02696 | -147.71635 | 38189 ft | 436 kts | 242° |
| 2026-05-04 00:13 | 27.99584 | -147.77522 | 38191 ft | 436 kts | 242° |
| 2026-05-04 00:13 | 27.96455 | -147.83410 | 38189 ft | 437 kts | 241° |
| 2026-05-04 00:14 | 27.93322 | -147.89295 | 38186 ft | 437 kts | 241° |
| 2026-05-04 00:14 | 27.90182 | -147.95175 | 38180 ft | 437 kts | 242° |
| 2026-05-04 00:15 | 27.87045 | -148.01057 | 38182 ft | 437 kts | 242° |
| 2026-05-04 00:15 | 27.83906 | -148.06941 | 38184 ft | 437 kts | 242° |
| 2026-05-04 00:16 | 27.80761 | -148.12823 | 38185 ft | 437 kts | 242° |
| 2026-05-04 00:16 | 27.77638 | -148.18662 | 38176 ft | 437 kts | 241° |
| 2026-05-04 00:17 | 27.74486 | -148.24530 | 38168 ft | 437 kts | 241° |
| 2026-05-04 00:17 | 27.71331 | -148.30398 | 38173 ft | 437 kts | 242° |
| 2026-05-04 00:18 | 27.68180 | -148.36260 | 38177 ft | 437 kts | 242° |
| 2026-05-04 00:18 | 27.65026 | -148.42127 | 38173 ft | 437 kts | 242° |
| 2026-05-04 00:19 | 27.61863 | -148.47987 | 38173 ft | 438 kts | 241° |
| 2026-05-04 00:19 | 27.58691 | -148.53840 | 38169 ft | 437 kts | 241° |
| 2026-05-04 00:20 | 27.55529 | -148.59690 | 38179 ft | 437 kts | 241° |
| 2026-05-04 00:20 | 27.52369 | -148.65542 | 38184 ft | 437 kts | 241° |
| 2026-05-04 00:21 | 27.49200 | -148.71390 | 38192 ft | 437 kts | 241° |
| 2026-05-04 00:21 | 27.46018 | -148.77226 | 38187 ft | 437 kts | 241° |
| 2026-05-04 00:22 | 27.42837 | -148.83057 | 38186 ft | 437 kts | 241° |
| 2026-05-04 00:22 | 27.39665 | -148.88886 | 38181 ft | 437 kts | 241° |
| 2026-05-04 00:23 | 27.36495 | -148.94713 | 38176 ft | 436 kts | 241° |
| 2026-05-04 00:23 | 27.33322 | -149.00535 | 38178 ft | 436 kts | 241° |
| 2026-05-04 00:24 | 27.30148 | -149.06346 | 38182 ft | 436 kts | 241° |
| 2026-05-04 00:24 | 27.26978 | -149.12142 | 38185 ft | 435 kts | 240° |
| 2026-05-04 00:25 | 27.23827 | -149.17884 | 38169 ft | 435 kts | 240° |
| 2026-05-04 00:25 | 27.20650 | -149.23667 | 38174 ft | 435 kts | 240° |
| 2026-05-04 00:26 | 27.17473 | -149.29448 | 38174 ft | 435 kts | 240° |
| 2026-05-04 00:26 | 27.14297 | -149.35221 | 38177 ft | 434 kts | 240° |
| 2026-05-04 00:27 | 27.11115 | -149.40984 | 38183 ft | 434 kts | 240° |
| 2026-05-04 00:27 | 27.07942 | -149.46733 | 38188 ft | 433 kts | 240° |
| 2026-05-04 00:28 | 27.04772 | -149.52484 | 38171 ft | 433 kts | 240° |
| 2026-05-04 00:28 | 27.01595 | -149.58235 | 38169 ft | 434 kts | 240° |
| 2026-05-04 00:29 | 26.98420 | -149.63975 | 38173 ft | 433 kts | 240° |
| 2026-05-04 00:29 | 26.95240 | -149.69702 | 38178 ft | 432 kts | 240° |
| 2026-05-04 00:30 | 26.92052 | -149.75413 | 38182 ft | 432 kts | 240° |
| 2026-05-04 00:30 | 26.88882 | -149.81126 | 38169 ft | 432 kts | 240° |
| 2026-05-04 00:31 | 26.85708 | -149.86841 | 38164 ft | 433 kts | 240° |
| 2026-05-04 00:31 | 26.82521 | -149.92555 | 38171 ft | 433 kts | 240° |
| 2026-05-04 00:32 | 26.79351 | -149.98225 | 38174 ft | 432 kts | 240° |
| 2026-05-04 00:32 | 26.76169 | -150.03927 | 38174 ft | 432 kts | 240° |
| 2026-05-04 00:33 | 26.71391 | -150.12470 | 38169 ft | 431 kts | 240° |
| 2026-05-04 00:34 | 26.68205 | -150.18152 | 38157 ft | 431 kts | 240° |
| 2026-05-04 00:34 | 26.65010 | -150.23828 | 38160 ft | 431 kts | 240° |
| 2026-05-04 00:35 | 26.61823 | -150.29508 | 38163 ft | 431 kts | 240° |
| 2026-05-04 00:35 | 26.58631 | -150.35182 | 38163 ft | 431 kts | 240° |
| 2026-05-04 00:36 | 26.55429 | -150.40844 | 38165 ft | 431 kts | 240° |
| 2026-05-04 00:36 | 26.52235 | -150.46507 | 38163 ft | 431 kts | 240° |
| 2026-05-04 00:37 | 26.49045 | -150.52163 | 38152 ft | 430 kts | 240° |
| 2026-05-04 00:37 | 26.45849 | -150.57814 | 38153 ft | 431 kts | 240° |
| 2026-05-04 00:38 | 26.42639 | -150.63460 | 38155 ft | 431 kts | 240° |
| 2026-05-04 00:38 | 26.39440 | -150.69115 | 38158 ft | 431 kts | 240° |
| 2026-05-04 00:39 | 26.36239 | -150.74772 | 38161 ft | 431 kts | 240° |
| 2026-05-04 00:39 | 26.33050 | -150.80380 | 38165 ft | 431 kts | 240° |
| 2026-05-04 00:40 | 26.29833 | -150.86017 | 38157 ft | 431 kts | 240° |
| 2026-05-04 00:40 | 26.26614 | -150.91652 | 38156 ft | 431 kts | 240° |
| 2026-05-04 00:41 | 26.23398 | -150.97284 | 38159 ft | 431 kts | 240° |
| 2026-05-04 00:41 | 26.20185 | -151.02919 | 38160 ft | 431 kts | 240° |
| 2026-05-04 00:42 | 26.16971 | -151.08549 | 38166 ft | 431 kts | 240° |
| 2026-05-04 00:42 | 26.13755 | -151.14168 | 38170 ft | 430 kts | 239° |
| 2026-05-04 00:43 | 26.10530 | -151.19784 | 38150 ft | 431 kts | 239° |
| 2026-05-04 00:43 | 26.07304 | -151.25400 | 38151 ft | 431 kts | 239° |
| 2026-05-04 00:44 | 26.04071 | -151.31021 | 38153 ft | 431 kts | 239° |
| 2026-05-04 00:44 | 26.00834 | -151.36639 | 38164 ft | 431 kts | 239° |
| 2026-05-04 00:45 | 25.97601 | -151.42251 | 38167 ft | 431 kts | 239° |
| 2026-05-04 00:45 | 25.94372 | -151.47857 | 38166 ft | 431 kts | 239° |
| 2026-05-04 00:46 | 25.91155 | -151.53416 | 38153 ft | 431 kts | 239° |
| 2026-05-04 00:46 | 25.87917 | -151.59013 | 38149 ft | 431 kts | 239° |
| 2026-05-04 00:47 | 25.84679 | -151.64616 | 38151 ft | 431 kts | 239° |
| 2026-05-04 00:47 | 25.81437 | -151.70219 | 38152 ft | 431 kts | 239° |
| 2026-05-04 00:48 | 25.78187 | -151.75814 | 38154 ft | 431 kts | 239° |
| 2026-05-04 00:48 | 25.74930 | -151.81406 | 38153 ft | 431 kts | 239° |
| 2026-05-04 00:49 | 25.71724 | -151.86923 | 38143 ft | 431 kts | 239° |
| 2026-05-04 00:49 | 25.68465 | -151.92518 | 38144 ft | 432 kts | 239° |
| 2026-05-04 00:50 | 25.65209 | -151.98106 | 38142 ft | 432 kts | 239° |
| 2026-05-04 00:50 | 25.61947 | -152.03690 | 38148 ft | 432 kts | 239° |
| 2026-05-04 00:51 | 25.58683 | -152.09274 | 38157 ft | 432 kts | 239° |
| 2026-05-04 00:51 | 25.55414 | -152.14851 | 38154 ft | 432 kts | 239° |
| 2026-05-04 00:52 | 25.52150 | -152.20427 | 38154 ft | 431 kts | 239° |
| 2026-05-04 00:52 | 25.48883 | -152.25995 | 38154 ft | 431 kts | 239° |
| 2026-05-04 00:53 | 25.45613 | -152.31559 | 38159 ft | 431 kts | 239° |
| 2026-05-04 00:53 | 25.42342 | -152.37119 | 38158 ft | 431 kts | 239° |
| 2026-05-04 00:54 | 25.39071 | -152.42671 | 38155 ft | 431 kts | 239° |
| 2026-05-04 00:54 | 25.35818 | -152.48182 | 38156 ft | 431 kts | 239° |
| 2026-05-04 00:55 | 25.32544 | -152.53726 | 38149 ft | 431 kts | 239° |
| 2026-05-04 00:55 | 25.29278 | -152.59277 | 38146 ft | 431 kts | 239° |
| 2026-05-04 00:56 | 25.26000 | -152.64820 | 38151 ft | 431 kts | 239° |
| 2026-05-04 00:56 | 25.22710 | -152.70359 | 38150 ft | 431 kts | 239° |
| 2026-05-04 00:57 | 25.19424 | -152.75895 | 38149 ft | 431 kts | 239° |
| 2026-05-04 00:57 | 25.16670 | -152.80533 | 38149 ft | 431 kts | 238° |
| 2026-05-04 00:58 | 25.13384 | -152.86068 | 38149 ft | 431 kts | 239° |
| 2026-05-04 00:58 | 25.10099 | -152.91602 | 38139 ft | 431 kts | 238° |
| 2026-05-04 00:59 | 25.06805 | -152.97131 | 38139 ft | 431 kts | 238° |
| 2026-05-04 00:59 | 25.03503 | -153.02654 | 38142 ft | 431 kts | 238° |
| 2026-05-04 01:00 | 25.00199 | -153.08179 | 38141 ft | 432 kts | 238° |
| 2026-05-04 01:00 | 24.96923 | -153.13670 | 38142 ft | 432 kts | 238° |
| 2026-05-04 01:01 | 24.93620 | -153.19191 | 38143 ft | 431 kts | 238° |
| 2026-05-04 01:01 | 24.90315 | -153.24710 | 38134 ft | 431 kts | 238° |
| 2026-05-04 01:02 | 24.87010 | -153.30230 | 38130 ft | 432 kts | 238° |
| 2026-05-04 01:02 | 24.83698 | -153.35752 | 38133 ft | 432 kts | 238° |
| 2026-05-04 01:03 | 24.80377 | -153.41278 | 38135 ft | 433 kts | 238° |
| 2026-05-04 01:03 | 24.77053 | -153.46797 | 38136 ft | 433 kts | 238° |
| 2026-05-04 01:04 | 24.73726 | -153.52315 | 38140 ft | 433 kts | 238° |
| 2026-05-04 01:04 | 24.70395 | -153.57834 | 38139 ft | 433 kts | 238° |
| 2026-05-04 01:05 | 24.67061 | -153.63345 | 38132 ft | 433 kts | 238° |
| 2026-05-04 01:05 | 24.63732 | -153.68867 | 38131 ft | 433 kts | 238° |
| 2026-05-04 01:06 | 24.60396 | -153.74385 | 38136 ft | 434 kts | 238° |
| 2026-05-04 01:06 | 24.57051 | -153.79899 | 38135 ft | 434 kts | 238° |
| 2026-05-04 01:07 | 24.53707 | -153.85412 | 38141 ft | 434 kts | 238° |
| 2026-05-04 01:07 | 24.50380 | -153.90882 | 38144 ft | 434 kts | 238° |
| 2026-05-04 01:08 | 24.47031 | -153.96389 | 38129 ft | 434 kts | 238° |
| 2026-05-04 01:08 | 24.43679 | -154.01896 | 38133 ft | 434 kts | 238° |
| 2026-05-04 01:09 | 24.40320 | -154.07404 | 38146 ft | 434 kts | 238° |
| 2026-05-04 01:09 | 24.36960 | -154.12908 | 38139 ft | 435 kts | 238° |
| 2026-05-04 01:10 | 24.33594 | -154.18421 | 38140 ft | 435 kts | 238° |
| 2026-05-04 01:10 | 24.30227 | -154.23929 | 38141 ft | 435 kts | 238° |
| 2026-05-04 01:11 | 24.26852 | -154.29429 | 38141 ft | 435 kts | 238° |
| 2026-05-04 01:11 | 24.23459 | -154.34917 | 38136 ft | 435 kts | 237° |
| 2026-05-04 01:12 | 24.20078 | -154.40362 | 38130 ft | 435 kts | 238° |
| 2026-05-04 01:12 | 24.16679 | -154.45849 | 38134 ft | 436 kts | 238° |
| 2026-05-04 01:13 | 24.13273 | -154.51341 | 38131 ft | 436 kts | 238° |
| 2026-05-04 01:13 | 24.09871 | -154.56830 | 38137 ft | 436 kts | 238° |
| 2026-05-04 01:14 | 24.06463 | -154.62317 | 38131 ft | 436 kts | 238° |
| 2026-05-04 01:14 | 24.03049 | -154.67800 | 38122 ft | 436 kts | 237° |
| 2026-05-04 01:15 | 23.99637 | -154.73281 | 38125 ft | 436 kts | 237° |
| 2026-05-04 01:15 | 23.96217 | -154.78760 | 38128 ft | 436 kts | 237° |
| 2026-05-04 01:16 | 23.92796 | -154.84243 | 38136 ft | 436 kts | 237° |
| 2026-05-04 01:16 | 23.89374 | -154.89719 | 38134 ft | 437 kts | 237° |
| 2026-05-04 01:17 | 23.85939 | -154.95196 | 38134 ft | 437 kts | 237° |
| 2026-05-04 01:17 | 23.82519 | -155.00676 | 38133 ft | 437 kts | 238° |
| 2026-05-04 01:18 | 23.79087 | -155.06151 | 38120 ft | 437 kts | 237° |
| 2026-05-04 01:18 | 23.75644 | -155.11617 | 38124 ft | 437 kts | 237° |
| 2026-05-04 01:19 | 23.72201 | -155.17089 | 38127 ft | 437 kts | 237° |
| 2026-05-04 01:19 | 23.68762 | -155.22563 | 38130 ft | 437 kts | 237° |
| 2026-05-04 01:20 | 23.65322 | -155.28036 | 38130 ft | 437 kts | 237° |
| 2026-05-04 01:20 | 23.61903 | -155.33468 | 38130 ft | 437 kts | 237° |
| 2026-05-04 01:21 | 23.58425 | -155.38968 | 38132 ft | 438 kts | 237° |
| 2026-05-04 01:21 | 23.54852 | -155.44287 | 38115 ft | 440 kts | 229° |
| 2026-05-04 01:22 | 23.49932 | -155.48277 | 38113 ft | 447 kts | 208° |
| 2026-05-04 01:22 | 23.43972 | -155.50336 | 38115 ft | 452 kts | 197° |
| 2026-05-04 01:23 | 23.37876 | -155.52030 | 38118 ft | 452 kts | 197° |
| 2026-05-04 01:23 | 23.31781 | -155.53744 | 38116 ft | 453 kts | 197° |
| 2026-05-04 01:24 | 23.25681 | -155.55451 | 38122 ft | 453 kts | 197° |
| 2026-05-04 01:24 | 23.19574 | -155.57147 | 38124 ft | 453 kts | 197° |
| 2026-05-04 01:25 | 23.13466 | -155.58843 | 38121 ft | 453 kts | 197° |
| 2026-05-04 01:25 | 23.07362 | -155.60541 | 38123 ft | 453 kts | 197° |
| 2026-05-04 01:26 | 23.01254 | -155.62242 | 38113 ft | 453 kts | 197° |
| 2026-05-04 01:26 | 22.95141 | -155.63943 | 38113 ft | 454 kts | 197° |
| 2026-05-04 01:27 | 22.89027 | -155.65635 | 38108 ft | 454 kts | 197° |
| 2026-05-04 01:27 | 22.82901 | -155.67327 | 38116 ft | 454 kts | 197° |
| 2026-05-04 01:28 | 22.76778 | -155.69023 | 38119 ft | 454 kts | 197° |
| 2026-05-04 01:28 | 22.70652 | -155.70717 | 38110 ft | 454 kts | 197° |
| 2026-05-04 01:29 | 22.64531 | -155.72408 | 38113 ft | 454 kts | 197° |
| 2026-05-04 01:29 | 22.58446 | -155.74083 | 38117 ft | 454 kts | 197° |
| 2026-05-04 01:30 | 22.52278 | -155.75767 | 38120 ft | 454 kts | 197° |
| 2026-05-04 01:30 | 22.46193 | -155.77433 | 38121 ft | 454 kts | 197° |
| 2026-05-04 01:31 | 22.40070 | -155.79121 | 38111 ft | 454 kts | 197° |
| 2026-05-04 01:31 | 22.33947 | -155.80807 | 38116 ft | 454 kts | 197° |
| 2026-05-04 01:32 | 22.27777 | -155.82498 | 38110 ft | 454 kts | 197° |
| 2026-05-04 01:32 | 22.21693 | -155.84155 | 38109 ft | 454 kts | 197° |
| 2026-05-04 01:33 | 22.15563 | -155.85823 | 38104 ft | 454 kts | 197° |
| 2026-05-04 01:33 | 22.09433 | -155.87503 | 37762 ft | 455 kts | 197° |
| 2026-05-04 01:33 | 22.06366 | -155.88352 | 37502 ft | 455 kts | 197° |
| 2026-05-04 01:34 | 22.03295 | -155.89202 | 37235 ft | 456 kts | 197° |
| 2026-05-04 01:34 | 22.00223 | -155.90048 | 36688 ft | 456 kts | 197° |
| 2026-05-04 01:34 | 21.97129 | -155.90897 | 35853 ft | 461 kts | 197° |
| 2026-05-04 01:34 | 21.93999 | -155.91751 | 34921 ft | 467 kts | 197° |
| 2026-05-04 01:35 | 21.90828 | -155.92614 | 34009 ft | 472 kts | 196° |
| 2026-05-04 01:35 | 21.87627 | -155.93482 | 32837 ft | 478 kts | 196° |
| 2026-05-04 01:35 | 21.84390 | -155.94361 | 31632 ft | 480 kts | 196° |
| 2026-05-04 01:35 | 21.81157 | -155.95239 | 30494 ft | 478 kts | 196° |
| 2026-05-04 01:36 | 21.77933 | -155.96114 | 29175 ft | 477 kts | 196° |
| 2026-05-04 01:36 | 21.74715 | -155.96989 | 27856 ft | 477 kts | 196° |
| 2026-05-04 01:36 | 21.71523 | -155.97858 | 26590 ft | 469 kts | 195° |
| 2026-05-04 01:36 | 21.68392 | -155.98711 | 25417 ft | 459 kts | 195° |
| 2026-05-04 01:37 | 21.65305 | -155.99552 | 24305 ft | 456 kts | 194° |
| 2026-05-04 01:37 | 21.62249 | -156.00383 | 23166 ft | 451 kts | 195° |
| 2026-05-04 01:37 | 21.59201 | -156.01210 | 21942 ft | 452 kts | 195° |
| 2026-05-04 01:37 | 21.56147 | -156.02039 | 20763 ft | 452 kts | 196° |
| 2026-05-04 01:38 | 21.53115 | -156.02860 | 19626 ft | 445 kts | 196° |
| 2026-05-04 01:38 | 21.50145 | -156.03662 | 18556 ft | 435 kts | 195° |
| 2026-05-04 01:38 | 21.47237 | -156.04447 | 17417 ft | 427 kts | 196° |
| 2026-05-04 01:38 | 21.44385 | -156.05218 | 16305 ft | 419 kts | 196° |
| 2026-05-04 01:39 | 21.41571 | -156.05981 | 15249 ft | 416 kts | 195° |
| 2026-05-04 01:39 | 21.38803 | -156.06734 | 14356 ft | 403 kts | 195° |
| 2026-05-04 01:39 | 21.36182 | -156.07440 | 14071 ft | 373 kts | 195° |
| 2026-05-04 01:39 | 21.33769 | -156.08085 | 13894 ft | 343 kts | 195° |
| 2026-05-04 01:40 | 21.31533 | -156.08682 | 13601 ft | 322 kts | 195° |
| 2026-05-04 01:40 | 21.29419 | -156.09252 | 13030 ft | 314 kts | 194° |
| 2026-05-04 01:40 | 21.27293 | -156.09828 | 12709 ft | 310 kts | 195° |
| 2026-05-04 01:40 | 21.25205 | -156.10394 | 12467 ft | 309 kts | 194° |
| 2026-05-04 01:41 | 21.23124 | -156.10958 | 12222 ft | 308 kts | 194° |
| 2026-05-04 01:41 | 21.21049 | -156.11522 | 11979 ft | 308 kts | 194° |
| 2026-05-04 01:41 | 21.18977 | -156.12082 | 11736 ft | 306 kts | 194° |
| 2026-05-04 01:41 | 21.16995 | -156.12902 | 11496 ft | 306 kts | 208° |
| 2026-05-04 01:42 | 21.15244 | -156.14137 | 11266 ft | 306 kts | 216° |
| 2026-05-04 01:42 | 21.13522 | -156.15467 | 10981 ft | 306 kts | 216° |
| 2026-05-04 01:42 | 21.11785 | -156.16806 | 10435 ft | 311 kts | 215° |
| 2026-05-04 01:42 | 21.10027 | -156.18160 | 10095 ft | 308 kts | 215° |
| 2026-05-04 01:43 | 21.08295 | -156.19492 | 9611 ft | 305 kts | 214° |
| 2026-05-04 01:43 | 21.06579 | -156.20810 | 8964 ft | 302 kts | 214° |
| 2026-05-04 01:43 | 21.04924 | -156.22084 | 8796 ft | 283 kts | 214° |
| 2026-05-04 01:43 | 21.03370 | -156.23279 | 8587 ft | 269 kts | 214° |
| 2026-05-04 01:44 | 21.01869 | -156.24431 | 8253 ft | 262 kts | 214° |
| 2026-05-04 01:44 | 21.00398 | -156.25551 | 7910 ft | 257 kts | 214° |
| 2026-05-04 01:44 | 20.98947 | -156.26651 | 7539 ft | 254 kts | 213° |
| 2026-05-04 01:44 | 20.97510 | -156.27737 | 7170 ft | 251 kts | 213° |
| 2026-05-04 01:45 | 20.96088 | -156.28813 | 6815 ft | 250 kts | 214° |
| 2026-05-04 01:45 | 20.94673 | -156.29884 | 6438 ft | 248 kts | 213° |
| 2026-05-04 01:45 | 20.92362 | -156.31629 | 5811 ft | 238 kts | 213° |
| 2026-05-04 01:46 | 20.91023 | -156.32645 | 5470 ft | 235 kts | 212° |
| 2026-05-04 01:46 | 20.89687 | -156.33656 | 5134 ft | 236 kts | 211° |
| 2026-05-04 01:46 | 20.88354 | -156.34666 | 4812 ft | 232 kts | 213° |
| 2026-05-04 01:46 | 20.87064 | -156.35650 | 4526 ft | 226 kts | 213° |
| 2026-05-04 01:47 | 20.85790 | -156.36624 | 4249 ft | 225 kts | 212° |
| 2026-05-04 01:47 | 20.84511 | -156.37589 | 3972 ft | 225 kts | 212° |
| 2026-05-04 01:47 | 20.83218 | -156.38542 | 3693 ft | 225 kts | 212° |
| 2026-05-04 01:47 | 20.81915 | -156.39496 | 3419 ft | 228 kts | 212° |
| 2026-05-04 01:48 | 20.80624 | -156.40473 | 3111 ft | 226 kts | 219° |
| 2026-05-04 01:48 | 20.79665 | -156.41780 | 2837 ft | 224 kts | 243° |
| 2026-05-04 01:48 | 20.79237 | -156.43355 | 2555 ft | 219 kts | 267° |
| 2026-05-04 01:48 | 20.79368 | -156.44924 | 2291 ft | 206 kts | 288° |
| 2026-05-04 01:49 | 20.79956 | -156.46257 | 2014 ft | 193 kts | 309° |
| 2026-05-04 01:49 | 20.80898 | -156.47212 | 1794 ft | 183 kts | 334° |
| 2026-05-04 01:49 | 20.82070 | -156.47658 | 1596 ft | 177 kts | 358° |
| 2026-05-04 01:49 | 20.83231 | -156.47591 | 1394 ft | 159 kts | 15° |
| 2026-05-04 01:50 | 20.84170 | -156.47147 | 1228 ft | 140 kts | 32° |
| 2026-05-04 01:50 | 20.84915 | -156.46582 | 1060 ft | 122 kts | 33° |
| 2026-05-04 01:50 | 20.85588 | -156.46080 | 830 ft | 117 kts | 34° |
| 2026-05-04 01:50 | 20.86246 | -156.45599 | 662 ft | 112 kts | 32° |
| 2026-05-04 01:51 | 20.86893 | -156.45128 | 533 ft | 111 kts | 33° |
| 2026-05-04 01:51 | 20.87532 | -156.44655 | 422 ft | 113 kts | 32° |
| 2026-05-04 01:51 | 20.88166 | -156.44178 | 259 ft | 114 kts | 34° |
| 2026-05-04 01:51 | 20.88804 | -156.43711 | 135 ft | 110 kts | 33° |
| 2026-05-04 01:52 | 20.89379 | -156.43282 | 50 ft | 87 kts | 34° |
| 2026-05-04 01:52 | 20.89749 | -156.43012 | 45 ft | 27 kts | 34° |
| 2026-05-04 01:52 | 20.89794 | -156.42979 | 45 ft | 11 kts | 34° |
| 2026-05-04 01:52 | 20.89892 | -156.42907 | 44 ft | 23 kts | 34° |
| 2026-05-04 01:53 | 20.90051 | -156.42790 | 44 ft | 30 kts | 35° |
| 2026-05-04 01:53 | 20.90130 | -156.42703 | 44 ft | 16 kts | 99° |
| 2026-05-04 01:53 | 20.90047 | -156.42644 | 46 ft | 16 kts | 202° |
| 2026-05-04 01:53 | 20.89944 | -156.42719 | 45 ft | 18 kts | 212° |
| 2026-05-04 01:54 | 20.89855 | -156.42786 | 45 ft | 12 kts | 216° |
| 2026-05-04 01:54 | 20.89809 | -156.42821 | 43 ft | 5 kts | 214° |
| 2026-05-04 01:54 | 20.89786 | -156.42837 | 45 ft | 7 kts | 214° |
| 2026-05-04 01:54 | 20.89719 | -156.42889 | 44 ft | 15 kts | 216° |
| 2026-05-04 01:55 | 20.89626 | -156.42959 | 45 ft | 14 kts | 213° |
| 2026-05-04 01:55 | 20.89591 | -156.42969 | 45 ft | 5 kts | 166° |
| 2026-05-04 01:55 | 20.89570 | -156.42946 | 45 ft | 0 kts | 130° |